Time;durP1;ratioP1;P1;durP2;ratioP2;P2;SDS_P1;SDS_P2;PMS_P1;PMS_P2;Temp;Humidity;BMP_temperature;BMP_pressure;BME280_temperature;BME280_humidity;BME280_pressure;Samples;Min_cycle;Max_cycle;Signal;HPM_P1;HPM_P2
2021/12/25 00:01:40;;;;;;;;;;;;;;;;;;5324509;28;19900;-67
2021/12/25 00:04:11;;;;;;;;;;;;;;;;;;5325143;28;19903;-67
2021/12/25 00:06:42;;;;;;;;;;;;;;;;;;5323872;28;19899;-67
2021/12/25 00:09:13;;;;;;;;;;;;;;;;;;5324950;28;20357;-67
2021/12/25 00:11:44;;;;;;;;;;;;;;;;;;5323356;28;19911;-66
2021/12/25 00:14:15;;;;;;;;;;;;;;;;;;5324716;28;19913;-66
2021/12/25 00:16:46;;;;;;;;;;;;;;;;;;5324343;28;19904;-66
2021/12/25 00:19:17;;;;;;;;;;;;;;;;;;5324134;28;19904;-66
2021/12/25 00:21:48;;;;;;;;;;;;;;;;;;5324186;28;19911;-67
2021/12/25 00:24:21;;;;;;;;;;;;;;;;;;5324734;28;20003;-66
2021/12/25 00:29:54;;;;;;;;;;;;;;;;;;5324793;28;20040;-66
2021/12/25 00:35:15;;;;;;;;;;;;;;;;;;5324658;28;19907;-67
2021/12/25 00:37:46;;;;;;;;;;;;;;;;;;5323844;28;19915;-67
2021/12/25 00:40:18;;;;;;;;;;;;;;;;;;5323756;28;19904;-66
2021/12/25 00:42:49;;;;;;;;;;;;;;;;;;5324004;28;19907;-66
2021/12/25 00:45:20;;;;;;;;;;;;;;;;;;5324496;28;19904;-66
2021/12/25 00:47:51;;;;;;;;;;;;;;;;;;5322763;28;20359;-66
2021/12/25 00:50:22;;;;;;;;;;;;;;;;;;5324618;28;19911;-66
2021/12/25 00:52:54;;;;;;;;;;;;;;;;;;5323618;28;20343;-66
2021/12/25 00:55:25;;;;;;;;;;;;;;;;;;5326793;28;19943;-67
2021/12/25 00:57:56;;;;;;;;;;;;;;;;;;5327993;28;19907;-67
2021/12/25 01:00:27;;;;;;;;;;;;;;;;;;5328616;28;19904;-67
2021/12/25 01:02:58;;;;;;;;;;;;;;;;;;5327088;28;20370;-67
2021/12/25 01:05:29;;;;;;;;;;;;;;;;;;5328628;28;19983;-66
2021/12/25 01:08:00;;;;;;;;;;;;;;;;;;5327056;28;19904;-67
2021/12/25 01:10:33;;;;;;;;;;;;;;;;;;5328272;28;19904;-67
2021/12/25 01:21:38;;;;;;;;;;;;;;;;;;5327707;28;19904;-66
2021/12/25 01:30:05;;;;;;;;;;;;;;;;;;5326758;28;19903;-67
2021/12/25 01:33:05;;;;;;;;;;;;;;;;;;5327770;28;19912;-68
2021/12/25 01:35:45;;;;;;;;;;;;;;;;;;5327746;28;20002;-67
2021/12/25 01:38:50;;;;;;;;;;;;;;;;;;5327262;28;19904;-66
2021/12/25 01:41:55;;;;;;;;;;;;;;;;;;5327754;28;19911;-67
2021/12/25 01:49:59;;;;;;;;;;;;;;;;;;5326924;28;19904;-67
2021/12/25 01:52:30;;;;;;;;;;;;;;;;;;5326940;28;19926;-67
2021/12/25 01:55:02;;;;;;;;;;;;;;;;;;5327136;27;19950;-67
2021/12/25 01:57:33;;;;;;;;;;;;;;;;;;5326795;28;19908;-67
2021/12/25 02:00:04;;;;;;;;;;;;;;;;;;5326871;28;19943;-67
2021/12/25 02:02:35;;;;;;;;;;;;;;;;;;5327296;28;19900;-67
2021/12/25 02:05:06;;;;;;;;;;;;;;;;;;5326294;28;19904;-67
2021/12/25 02:07:38;;;;;;;;;;;;;;;;;;5326877;28;19948;-68
2021/12/25 02:10:09;;;;;;;;;;;;;;;;;;5327425;28;19908;-67
2021/12/25 02:12:40;;;;;;;;;;;;;;;;;;5325647;28;19924;-67
2021/12/25 02:15:15;;;;;;;;;;;;;;;;;;5327117;28;19911;-67
2021/12/25 02:20:34;;;;;;;;;;;;;;;;;;5326460;28;19908;-67
2021/12/25 02:23:06;;;;;;;;;;;;;;;;;;5326364;27;19911;-67
2021/12/25 02:25:37;;;;;;;;;;;;;;;;;;5325674;28;19956;-67
2021/12/25 02:28:08;;;;;;;;;;;;;;;;;;5327237;28;20326;-67
2021/12/25 02:30:39;;;;;;;;;;;;;;;;;;5326383;28;19964;-68
2021/12/25 02:33:10;;;;;;;;;;;;;;;;;;5325840;28;20358;-67
2021/12/25 02:35:41;;;;;;;;;;;;;;;;;;5326249;28;19903;-67
2021/12/25 02:38:12;;;;;;;;;;;;;;;;;;5326600;28;19946;-67
2021/12/25 02:40:43;;;;;;;;;;;;;;;;;;5325154;28;19903;-67
2021/12/25 02:43:15;;;;;;;;;;;;;;;;;;5326605;28;19910;-67
2021/12/25 02:45:46;;;;;;;;;;;;;;;;;;5325831;27;19904;-67
2021/12/25 02:48:19;;;;;;;;;;;;;;;;;;5325590;28;19938;-67
2021/12/25 02:50:50;;;;;;;;;;;;;;;;;;5325671;28;20002;-67
2021/12/25 02:53:21;;;;;;;;;;;;;;;;;;5325683;28;20431;-67
2021/12/25 02:55:52;;;;;;;;;;;;;;;;;;5325835;28;19910;-67
2021/12/25 02:58:24;;;;;;;;;;;;;;;;;;5326286;28;19904;-67
2021/12/25 03:00:55;;;;;;;;;;;;;;;;;;5324847;28;20474;-67
2021/12/25 03:03:26;;;;;;;;;;;;;;;;;;5326131;28;19911;-67
2021/12/25 03:05:57;;;;;;;;;;;;;;;;;;5325671;28;19908;-67
2021/12/25 03:08:28;;;;;;;;;;;;;;;;;;5325304;28;19958;-67
2021/12/25 03:10:59;;;;;;;;;;;;;;;;;;5325445;28;19977;-68
2021/12/25 03:16:14;;;;;;;;;;;;;;;;;;5325096;28;19903;-66
2021/12/25 03:18:49;;;;;;;;;;;;;;;;;;5324566;28;19903;-66
2021/12/25 03:21:20;;;;;;;;;;;;;;;;;;5325751;28;19908;-66
2021/12/25 03:23:52;;;;;;;;;;;;;;;;;;5324329;28;20372;-66
2021/12/25 03:26:23;;;;;;;;;;;;;;;;;;5325714;27;19911;-66
2021/12/25 03:28:54;;;;;;;;;;;;;;;;;;5324338;28;19904;-66
2021/12/25 03:31:26;;;;;;;;;;;;;;;;;;5325850;28;19998;-67
2021/12/25 03:33:57;;;;;;;;;;;;;;;;;;5324905;28;19961;-67
2021/12/25 03:36:28;;;;;;;;;;;;;;;;;;5324578;28;19910;-67
2021/12/25 03:39:00;;;;;;;;;;;;;;;;;;5324803;28;19903;-67
2021/12/25 03:41:31;;;;;;;;;;;;;;;;;;5325533;28;20312;-67
2021/12/25 03:44:02;;;;;;;;;;;;;;;;;;5323952;28;19933;-67
2021/12/25 03:46:34;;;;;;;;;;;;;;;;;;5325228;28;19916;-67
2021/12/25 03:49:12;;;;;;;;;;;;;;;;;;5324566;28;19938;-68
2021/12/25 03:57:49;;;;;;;;;;;;;;;;;;5324518;28;20267;-68
2021/12/25 04:00:28;;;;;;;;;;;;;;;;;;5325190;28;20006;-68
2021/12/25 04:03:04;;;;;;;;;;;;;;;;;;5324472;28;19967;-68
2021/12/25 04:05:38;;;;;;;;;;;;;;;;;;5324200;28;19907;-68
2021/12/25 04:08:14;;;;;;;;;;;;;;;;;;5325208;28;19942;-67
2021/12/25 04:10:45;;;;;;;;;;;;;;;;;;5323606;28;19910;-67
2021/12/25 04:13:16;;;;;;;;;;;;;;;;;;5324724;28;20267;-67
2021/12/25 04:15:47;;;;;;;;;;;;;;;;;;5324124;28;19912;-67
2021/12/25 04:18:20;;;;;;;;;;;;;;;;;;5323933;28;19931;-67
2021/12/25 04:20:51;;;;;;;;;;;;;;;;;;5324345;28;19987;-68
2021/12/25 04:23:26;;;;;;;;;;;;;;;;;;5325084;28;20323;-67
2021/12/25 04:26:00;;;;;;;;;;;;;;;;;;5323374;28;19914;-67
2021/12/25 04:29:04;;;;;;;;;;;;;;;;;;5323631;28;19911;-67
2021/12/25 04:32:02;;;;;;;;;;;;;;;;;;5324648;28;19904;-67
2021/12/25 05:02:48;;;;;;;;;;;;;;;;;;5324540;28;19904;-67
2021/12/25 05:05:21;;;;;;;;;;;;;;;;;;5324529;28;19949;-66
2021/12/25 05:07:52;;;;;;;;;;;;;;;;;;5323002;28;19960;-67
2021/12/25 05:10:23;;;;;;;;;;;;;;;;;;5324384;28;19904;-67
2021/12/25 05:12:54;;;;;;;;;;;;;;;;;;5323760;28;19918;-67
2021/12/25 05:15:25;;;;;;;;;;;;;;;;;;5323464;28;19948;-66
2021/12/25 05:17:56;;;;;;;;;;;;;;;;;;5323575;28;19918;-67
2021/12/25 05:20:27;;;;;;;;;;;;;;;;;;5324149;28;20286;-67
2021/12/25 05:22:58;;;;;;;;;;;;;;;;;;5322618;28;19992;-67
2021/12/25 05:25:31;;;;;;;;;;;;;;;;;;5324275;28;19914;-67
2021/12/25 05:28:02;;;;;;;;;;;;;;;;;;5323484;28;19911;-67
2021/12/25 05:30:34;;;;;;;;;;;;;;;;;;5323893;28;19904;-67
2021/12/25 05:33:05;;;;;;;;;;;;;;;;;;5323345;28;19911;-67
2021/12/25 05:35:36;;;;;;;;;;;;;;;;;;5323120;28;19904;-68
2021/12/25 05:38:13;;;;;;;;;;;;;;;;;;5323795;28;19969;-67
2021/12/25 05:40:44;;;;;;;;;;;;;;;;;;5325415;28;19981;-67
2021/12/25 05:43:15;;;;;;;;;;;;;;;;;;5327073;28;20357;-68
2021/12/25 05:45:46;;;;;;;;;;;;;;;;;;5327021;28;20001;-68
2021/12/25 05:48:17;;;;;;;;;;;;;;;;;;5327604;28;20031;-67
2021/12/25 05:50:48;;;;;;;;;;;;;;;;;;5326556;28;19906;-68
2021/12/25 05:53:20;;;;;;;;;;;;;;;;;;5327561;28;19921;-67
2021/12/25 05:55:51;;;;;;;;;;;;;;;;;;5327204;28;19925;-68
2021/12/25 05:58:22;;;;;;;;;;;;;;;;;;5326607;28;19907;-67
2021/12/25 06:00:53;;;;;;;;;;;;;;;;;;5326815;28;20343;-67
2021/12/25 06:03:24;;;;;;;;;;;;;;;;;;5326624;28;19903;-68
2021/12/25 06:05:57;;;;;;;;;;;;;;;;;;5326606;28;19987;-67
2021/12/25 06:08:28;;;;;;;;;;;;;;;;;;5327226;28;20364;-67
2021/12/25 06:11:02;;;;;;;;;;;;;;;;;;5326061;28;19904;-68
2021/12/25 06:13:36;;;;;;;;;;;;;;;;;;5327289;28;19919;-68
2021/12/25 06:16:07;;;;;;;;;;;;;;;;;;5326958;28;19904;-68
2021/12/25 06:18:38;;;;;;;;;;;;;;;;;;5325581;28;20410;-68
2021/12/25 06:21:09;;;;;;;;;;;;;;;;;;5327022;28;19903;-68
2021/12/25 06:23:40;;;;;;;;;;;;;;;;;;5326707;28;19904;-68
2021/12/25 06:26:12;;;;;;;;;;;;;;;;;;5326296;28;20289;-68
2021/12/25 06:28:43;;;;;;;;;;;;;;;;;;5326365;28;19911;-68
2021/12/25 06:31:14;;;;;;;;;;;;;;;;;;5326698;28;20267;-68
2021/12/25 06:33:45;;;;;;;;;;;;;;;;;;5325076;28;19965;-68
2021/12/25 06:36:16;;;;;;;;;;;;;;;;;;5326826;28;19956;-68
2021/12/25 06:38:47;;;;;;;;;;;;;;;;;;5325262;28;19904;-68
2021/12/25 06:41:18;;;;;;;;;;;;;;;;;;5326895;28;19907;-68
2021/12/25 06:43:49;;;;;;;;;;;;;;;;;;5325900;28;19947;-68
2021/12/25 06:46:20;;;;;;;;;;;;;;;;;;5325469;28;19986;-68
2021/12/25 06:48:52;;;;;;;;;;;;;;;;;;5326000;28;19903;-67
2021/12/25 06:51:23;;;;;;;;;;;;;;;;;;5325574;28;19904;-68
2021/12/25 06:53:54;;;;;;;;;;;;;;;;;;5324730;28;19914;-68
2021/12/25 06:56:25;;;;;;;;;;;;;;;;;;5326475;28;19911;-68
2021/12/25 06:58:56;;;;;;;;;;;;;;;;;;5325869;28;20295;-68
2021/12/25 07:01:27;;;;;;;;;;;;;;;;;;5325473;28;19907;-68
2021/12/25 07:03:58;;;;;;;;;;;;;;;;;;5325326;28;19990;-68
2021/12/25 07:06:29;;;;;;;;;;;;;;;;;;5326039;28;19903;-68
2021/12/25 07:09:00;;;;;;;;;;;;;;;;;;5325457;28;20320;-68
2021/12/25 07:11:31;;;;;;;;;;;;;;;;;;5326059;28;20014;-68
2021/12/25 07:14:04;;;;;;;;;;;;;;;;;;5324654;28;19904;-68
2021/12/25 07:16:35;;;;;;;;;;;;;;;;;;5326010;28;19903;-68
2021/12/25 07:19:06;;;;;;;;;;;;;;;;;;5325272;28;19904;-68
2021/12/25 07:21:37;;;;;;;;;;;;;;;;;;5324460;28;20360;-68
2021/12/25 07:24:09;;;;;;;;;;;;;;;;;;5325809;28;19910;-68
2021/12/25 07:26:40;;;;;;;;;;;;;;;;;;5325369;28;20014;-68
2021/12/25 07:29:12;;;;;;;;;;;;;;;;;;5324808;28;19986;-68
2021/12/25 07:31:43;;;;;;;;;;;;;;;;;;5324622;28;19947;-68
2021/12/25 07:34:14;;;;;;;;;;;;;;;;;;5325574;28;19961;-67
2021/12/25 07:36:45;;;;;;;;;;;;;;;;;;5324270;28;19911;-67
2021/12/25 07:39:16;;;;;;;;;;;;;;;;;;5325558;28;20373;-67
2021/12/25 07:41:47;;;;;;;;;;;;;;;;;;5324151;28;19911;-68
2021/12/25 07:44:18;;;;;;;;;;;;;;;;;;5325270;28;20373;-68
2021/12/25 07:46:49;;;;;;;;;;;;;;;;;;5324645;28;19916;-67
2021/12/25 07:49:21;;;;;;;;;;;;;;;;;;5324410;28;19904;-67
2021/12/25 07:51:52;;;;;;;;;;;;;;;;;;5324122;28;19918;-68
2021/12/25 07:54:23;;;;;;;;;;;;;;;;;;5324932;28;19903;-67
2021/12/25 07:56:55;;;;;;;;;;;;;;;;;;5323720;28;20318;-67
2021/12/25 07:59:26;;;;;;;;;;;;;;;;;;5325274;28;19953;-67
2021/12/25 08:01:57;;;;;;;;;;;;;;;;;;5324564;28;20614;-67
2021/12/25 08:04:28;;;;;;;;;;;;;;;;;;5324075;28;19949;-67
2021/12/25 08:06:59;;;;;;;;;;;;;;;;;;5324290;28;19911;-67
2021/12/25 08:09:31;;;;;;;;;;;;;;;;;;5324760;28;19962;-68
2021/12/25 08:12:02;;;;;;;;;;;;;;;;;;5323578;28;20006;-67
2021/12/25 08:14:33;;;;;;;;;;;;;;;;;;5324884;28;20002;-67
2021/12/25 08:17:04;;;;;;;;;;;;;;;;;;5323396;28;19949;-67
2021/12/25 08:19:35;;;;;;;;;;;;;;;;;;5324664;28;20359;-66
2021/12/25 08:22:06;;;;;;;;;;;;;;;;;;5324066;28;20010;-66
2021/12/25 08:24:37;;;;;;;;;;;;;;;;;;5323322;28;19904;-69
2021/12/25 08:27:09;;;;;;;;;;;;;;;;;;5324848;28;19904;-67
2021/12/25 08:29:40;;;;;;;;;;;;;;;;;;5324196;28;19911;-67
2021/12/25 08:32:11;;;;;;;;;;;;;;;;;;5323697;28;19986;-67
2021/12/25 08:34:43;;;;;;;;;;;;;;;;;;5324146;28;20002;-67
2021/12/25 08:37:14;;;;;;;;;;;;;;;;;;5324405;28;20381;-67
2021/12/25 08:39:45;;;;;;;;;;;;;;;;;;5322944;28;19904;-66
2021/12/25 08:42:16;;;;;;;;;;;;;;;;;;5324195;28;19922;-66
2021/12/25 08:47:24;;;;;;;;;;;;;;;;;;5323071;28;19916;-66
2021/12/25 08:49:55;;;;;;;;;;;;;;;;;;5323781;28;19911;-67
2021/12/25 08:52:27;;;;;;;;;;;;;;;;;;5323394;28;19972;-68
2021/12/25 08:54:58;;;;;;;;;;;;;;;;;;5323887;28;19914;-67
2021/12/25 08:57:29;;;;;;;;;;;;;;;;;;5323035;28;19996;-67
2021/12/25 09:00:00;;;;;;;;;;;;;;;;;;5322061;28;20354;-67
2021/12/25 09:02:31;;;;;;;;;;;;;;;;;;5323102;28;19911;-68
2021/12/25 09:05:02;;;;;;;;;;;;;;;;;;5322392;28;19904;-68
2021/12/25 09:07:33;;;;;;;;;;;;;;;;;;5322279;28;19904;-68
2021/12/25 09:10:04;;;;;;;;;;;;;;;;;;5322740;28;19949;-68
2021/12/25 09:12:40;;;;;;;;;;;;;;;;;;5322394;28;20002;-68
2021/12/25 09:15:13;;;;;;;;;;;;;;;;;;5323616;28;19904;-67
2021/12/25 09:17:45;;;;;;;;;;;;;;;;;;5326558;28;19904;-68
2021/12/25 09:20:17;;;;;;;;;;;;;;;;;;5326333;28;20323;-67
2021/12/25 09:22:48;;;;;;;;;;;;;;;;;;5326528;28;19903;-68
2021/12/25 09:25:19;;;;;;;;;;;;;;;;;;5326681;28;19942;-67
2021/12/25 09:27:50;;;;;;;;;;;;;;;;;;5325553;28;19908;-68
2021/12/25 09:30:21;;;;;;;;;;;;;;;;;;5326940;28;20347;-68
2021/12/25 09:32:52;;;;;;;;;;;;;;;;;;5326169;28;19911;-68
2021/12/25 09:35:24;;;;;;;;;;;;;;;;;;5326306;28;19986;-68
2021/12/25 09:37:55;;;;;;;;;;;;;;;;;;5325909;28;20015;-68
2021/12/25 09:40:26;;;;;;;;;;;;;;;;;;5326845;28;19904;-68
2021/12/25 09:42:57;;;;;;;;;;;;;;;;;;5325279;28;19904;-67
2021/12/25 09:45:28;;;;;;;;;;;;;;;;;;5326578;28;19995;-68
2021/12/25 09:47:59;;;;;;;;;;;;;;;;;;5325766;28;19951;-68
2021/12/25 09:50:30;;;;;;;;;;;;;;;;;;5325423;28;20013;-68
2021/12/25 09:53:01;;;;;;;;;;;;;;;;;;5325710;28;19957;-68
2021/12/25 09:55:33;;;;;;;;;;;;;;;;;;5325603;28;19911;-68
2021/12/25 09:58:04;;;;;;;;;;;;;;;;;;5325731;28;19950;-69
2021/12/25 10:00:35;;;;;;;;;;;;;;;;;;5326433;28;19911;-68
2021/12/25 10:03:06;;;;;;;;;;;;;;;;;;5324544;28;19904;-68
2021/12/25 10:05:37;;;;;;;;;;;;;;;;;;5325739;28;19991;-69
2021/12/25 10:08:08;;;;;;;;;;;;;;;;;;5326051;28;19904;-67
2021/12/25 10:10:42;;;;;;;;;;;;;;;;;;5324896;28;19926;-67
2021/12/25 10:13:13;;;;;;;;;;;;;;;;;;5325478;28;19951;-68
2021/12/25 10:15:44;;;;;;;;;;;;;;;;;;5324895;28;20025;-69
2021/12/25 10:18:15;;;;;;;;;;;;;;;;;;5325110;28;19904;-68
2021/12/25 10:20:46;;;;;;;;;;;;;;;;;;5325056;28;19908;-70
2021/12/25 10:23:25;;;;;;;;;;;;;;;;;;5325952;28;19911;-69
2021/12/25 10:25:56;;;;;;;;;;;;;;;;;;5324522;28;19912;-69
2021/12/25 10:28:27;;;;;;;;;;;;;;;;;;5325759;28;19911;-69
2021/12/25 10:30:59;;;;;;;;;;;;;;;;;;5323805;28;20428;-69
2021/12/25 10:33:30;;;;;;;;;;;;;;;;;;5325790;28;20002;-71
2021/12/25 10:36:01;;;;;;;;;;;;;;;;;;5325117;28;20448;-70
2021/12/25 10:38:32;;;;;;;;;;;;;;;;;;5324882;28;19903;-70
2021/12/25 10:41:03;;;;;;;;;;;;;;;;;;5324906;28;19911;-71
2021/12/25 10:43:40;;;;;;;;;;;;;;;;;;5325141;28;19915;-70
2021/12/25 10:46:12;;;;;;;;;;;;;;;;;;5324575;28;19915;-72
2021/12/25 10:48:43;;;;;;;;;;;;;;;;;;5324775;28;20285;-71
2021/12/25 10:51:14;;;;;;;;;;;;;;;;;;5325436;28;19904;-71
2021/12/25 10:53:45;;;;;;;;;;;;;;;;;;5323906;28;19916;-71
2021/12/25 10:56:16;;;;;;;;;;;;;;;;;;5324454;28;19903;-71
2021/12/25 10:58:47;;;;;;;;;;;;;;;;;;5324063;28;19926;-71
2021/12/25 11:01:18;;;;;;;;;;;;;;;;;;5325174;28;19904;-70
2021/12/25 11:03:52;;;;;;;;;;;;;;;;;;5324239;28;19911;-71
2021/12/25 11:06:23;;;;;;;;;;;;;;;;;;5324200;28;19994;-71
2021/12/25 11:08:54;;;;;;;;;;;;;;;;;;5323808;28;20410;-71
2021/12/25 11:11:25;;;;;;;;;;;;;;;;;;5325222;28;19904;-71
2021/12/25 11:13:56;;;;;;;;;;;;;;;;;;5323590;28;19920;-71
2021/12/25 11:16:28;;;;;;;;;;;;;;;;;;5324871;28;20397;-69
2021/12/25 11:19:06;;;;;;;;;;;;;;;;;;5323975;28;20472;-69
2021/12/25 11:21:37;;;;;;;;;;;;;;;;;;5322743;28;19908;-70
2021/12/25 11:24:08;;;;;;;;;;;;;;;;;;5324297;28;19908;-70
2021/12/25 11:26:39;;;;;;;;;;;;;;;;;;5324021;28;19908;-70
2021/12/25 11:29:12;;;;;;;;;;;;;;;;;;5323634;28;19915;-70
2021/12/25 11:31:43;;;;;;;;;;;;;;;;;;5323697;28;19927;-70
2021/12/25 11:34:14;;;;;;;;;;;;;;;;;;5323381;28;19904;-69
2021/12/25 11:36:47;;;;;;;;;;;;;;;;;;5323621;28;20356;-69
2021/12/25 11:39:19;;;;;;;;;;;;;;;;;;5323838;28;19926;-69
2021/12/25 11:41:54;;;;;;;;;;;;;;;;;;5323064;28;19986;-70
2021/12/25 11:44:25;;;;;;;;;;;;;;;;;;5324387;28;19954;-70
2021/12/25 11:46:56;;;;;;;;;;;;;;;;;;5323614;28;19958;-70
2021/12/25 11:49:27;;;;;;;;;;;;;;;;;;5322670;28;20327;-69
2021/12/25 11:51:58;;;;;;;;;;;;;;;;;;5319352;28;19907;-70
2021/12/25 11:55:20;;;;;;;;;;;;;;;;;;5320848;28;19908;-70
2021/12/25 12:00:12;;;;;;;;;;;;;;;;;;5299741;28;19908;-69
2021/12/25 12:02:43;;;;;;;;;;;;;;;;;;5319117;28;19990;-69
2021/12/25 12:05:14;;;;;;;;;;;;;;;;;;5322527;28;19914;-69
2021/12/25 12:07:45;;;;;;;;;;;;;;;;;;5323086;28;20251;-70
2021/12/25 12:10:16;;;;;;;;;;;;;;;;;;5322853;28;19910;-70
2021/12/25 12:12:47;;;;;;;;;;;;;;;;;;5323017;28;19973;-70
2021/12/25 12:15:19;;;;;;;;;;;;;;;;;;5323189;28;19904;-69
2021/12/25 12:17:50;;;;;;;;;;;;;;;;;;5321305;28;19961;-70
2021/12/25 12:20:21;;;;;;;;;;;;;;;;;;5323351;28;19910;-70
2021/12/25 12:23:00;;;;;;;;;;;;;;;;;;5322901;28;20278;-69
2021/12/25 12:26:03;;;;;;;;;;;;;;;;;;5318933;28;19904;-69
2021/12/25 12:28:22;;;;;;;;;;;;;;;;;;5301657;28;20363;-69
2021/12/25 12:30:53;;;;;;;;;;;;;;;;;;5320533;28;19911;-69
2021/12/25 12:33:25;;;;;;;;;;;;;;;;;;5322949;28;19918;-69
2021/12/25 12:35:56;;;;;;;;;;;;;;;;;;5322155;28;20516;-69
2021/12/25 12:38:27;;;;;;;;;;;;;;;;;;5322384;28;20419;-68
2021/12/25 12:40:58;;;;;;;;;;;;;;;;;;5322723;28;19954;-69
2021/12/25 12:43:29;;;;;;;;;;;;;;;;;;5322550;28;19923;-69
2021/12/25 12:46:00;;;;;;;;;;;;;;;;;;5321851;28;19908;-69
2021/12/25 12:48:31;;;;;;;;;;;;;;;;;;5321979;28;20453;-69
2021/12/25 12:51:03;;;;;;;;;;;;;;;;;;5324117;28;19910;-67
2021/12/25 12:53:34;;;;;;;;;;;;;;;;;;5325291;28;19918;-69
2021/12/25 12:56:05;;;;;;;;;;;;;;;;;;5325512;28;19972;-69
2021/12/25 12:58:36;;;;;;;;;;;;;;;;;;5324608;28;19950;-69
2021/12/25 13:01:07;;;;;;;;;;;;;;;;;;5325776;28;19910;-69
2021/12/25 13:03:38;;;;;;;;;;;;;;;;;;5325475;28;19904;-68
2021/12/25 13:06:13;;;;;;;;;;;;;;;;;;5325293;28;19903;-68
2021/12/25 13:08:46;;;;;;;;;;;;;;;;;;5319224;28;19947;-68
2021/12/25 13:11:38;;;;;;;;;;;;;;;;;;5325121;28;19904;-69
2021/12/25 13:14:11;;;;;;;;;;;;;;;;;;5324849;28;19919;-68
2021/12/25 13:16:44;;;;;;;;;;;;;;;;;;5325009;28;19931;-69
2021/12/25 13:19:15;;;;;;;;;;;;;;;;;;5325392;28;19904;-68
2021/12/25 13:21:46;;;;;;;;;;;;;;;;;;5324344;28;19990;-69
2021/12/25 13:24:17;;;;;;;;;;;;;;;;;;5325044;28;19911;-69
2021/12/25 13:26:50;;;;;;;;;;;;;;;;;;5324136;28;19910;-69
2021/12/25 13:29:21;;;;;;;;;;;;;;;;;;5325444;28;20370;-67
2021/12/25 13:31:53;;;;;;;;;;;;;;;;;;5324776;28;19904;-69
2021/12/25 13:34:24;;;;;;;;;;;;;;;;;;5324615;28;19914;-68
2021/12/25 13:36:55;;;;;;;;;;;;;;;;;;5324488;28;20812;-68
2021/12/25 13:39:27;;;;;;;;;;;;;;;;;;5325439;28;19908;-68
2021/12/25 13:41:58;;;;;;;;;;;;;;;;;;5326277;28;19904;-69
2021/12/25 13:44:29;;;;;;;;;;;;;;;;;;5325280;28;19904;-69
2021/12/25 13:47:00;;;;;;;;;;;;;;;;;;5288986;28;1015497;-68
2021/12/25 13:49:31;;;;;;;;;;;;;;;;;;5325330;28;19904;-68
2021/12/25 13:52:02;;;;;;;;;;;;;;;;;;5325580;28;19907;-69
2021/12/25 13:54:33;;;;;;;;;;;;;;;;;;5325527;28;19910;-69
2021/12/25 13:57:04;;;;;;;;;;;;;;;;;;5325601;28;19950;-69
2021/12/25 13:59:35;;;;;;;;;;;;;;;;;;5326182;28;20378;-70
2021/12/25 14:02:07;;;;;;;;;;;;;;;;;;5324161;28;19937;-68
2021/12/25 14:04:38;;;;;;;;;;;;;;;;;;5325376;28;19905;-69
2021/12/25 14:07:09;;;;;;;;;;;;;;;;;;5326064;28;19904;-68
2021/12/25 14:09:40;;;;;;;;;;;;;;;;;;5324562;28;19958;-69
2021/12/25 14:12:11;;;;;;;;;;;;;;;;;;5325804;28;19908;-69
2021/12/25 14:14:42;;;;;;;;;;;;;;;;;;5309105;28;20263;-69
2021/12/25 14:17:13;;;;;;;;;;;;;;;;;;5304055;28;19904;-68
2021/12/25 14:19:44;;;;;;;;;;;;;;;;;;5303963;28;20011;-69
2021/12/25 14:22:17;;;;;;;;;;;;;;;;;;5304366;28;20339;-68
2021/12/25 14:24:48;;;;;;;;;;;;;;;;;;5303355;28;19904;-69
2021/12/25 14:27:19;;;;;;;;;;;;;;;;;;5304589;28;20331;-69
2021/12/25 14:29:50;;;;;;;;;;;;;;;;;;5302967;28;19908;-69
2021/12/25 14:32:21;;;;;;;;;;;;;;;;;;5304312;28;19920;-68
2021/12/25 14:34:52;;;;;;;;;;;;;;;;;;5303563;28;19943;-69
2021/12/25 14:37:23;;;;;;;;;;;;;;;;;;5303486;28;19908;-69
2021/12/25 14:39:54;;;;;;;;;;;;;;;;;;5303798;28;19957;-69
2021/12/25 14:42:25;;;;;;;;;;;;;;;;;;5303924;28;19999;-68
2021/12/25 14:44:56;;;;;;;;;;;;;;;;;;5303034;28;19912;-68
2021/12/25 14:47:27;;;;;;;;;;;;;;;;;;5303745;28;20392;-68
2021/12/25 14:49:59;;;;;;;;;;;;;;;;;;5303522;28;19950;-68
2021/12/25 14:52:30;;;;;;;;;;;;;;;;;;5303012;28;19912;-68
2021/12/25 14:55:01;;;;;;;;;;;;;;;;;;5302887;28;19914;-70
2021/12/25 14:57:32;;;;;;;;;;;;;;;;;;5303859;28;19965;-70
2021/12/25 15:00:03;;;;;;;;;;;;;;;;;;5302487;28;19908;-70
2021/12/25 15:02:34;;;;;;;;;;;;;;;;;;5303935;28;20307;-66
2021/12/25 15:05:05;;;;;;;;;;;;;;;;;;5301872;28;19904;-67
2021/12/25 15:07:36;;;;;;;;;;;;;;;;;;5302878;28;19958;-68
2021/12/25 15:10:07;;;;;;;;;;;;;;;;;;5303246;28;19949;-68
2021/12/25 15:12:39;;;;;;;;;;;;;;;;;;5301621;28;19919;-68
2021/12/25 15:15:10;;;;;;;;;;;;;;;;;;5303483;28;20030;-68
2021/12/25 15:17:41;;;;;;;;;;;;;;;;;;5302785;28;19910;-68
2021/12/25 15:20:12;;;;;;;;;;;;;;;;;;5302082;28;19988;-68
2021/12/25 15:22:43;;;;;;;;;;;;;;;;;;5302632;28;20315;-69
2021/12/25 15:25:14;;;;;;;;;;;;;;;;;;5303526;28;19904;-69
2021/12/25 15:27:46;;;;;;;;;;;;;;;;;;5301932;28;19987;-69
2021/12/25 15:30:17;;;;;;;;;;;;;;;;;;5303394;28;19904;-69
2021/12/25 15:32:48;;;;;;;;;;;;;;;;;;5302460;28;19912;-69
2021/12/25 15:35:20;;;;;;;;;;;;;;;;;;5301609;28;20517;-69
2021/12/25 15:37:51;;;;;;;;;;;;;;;;;;5302354;28;19939;-69
2021/12/25 15:40:22;;;;;;;;;;;;;;;;;;5329985;27;19911;-69
2021/12/25 15:42:53;;;;;;;;;;;;;;;;;;5327713;27;20259;-69
2021/12/25 15:45:24;;;;;;;;;;;;;;;;;;5323806;28;19947;-69
2021/12/25 15:47:55;;;;;;;;;;;;;;;;;;5321936;28;20322;-69
2021/12/25 15:50:27;;;;;;;;;;;;;;;;;;5324008;28;20304;-69
2021/12/25 15:52:58;;;;;;;;;;;;;;;;;;5323288;28;20359;-69
2021/12/25 15:55:31;;;;;;;;;;;;;;;;;;5322382;28;19908;-69
2021/12/25 15:58:07;;;;;;;;;;;;;;;;;;5323722;28;19907;-70
2021/12/25 16:00:38;;;;;;;;;;;;;;;;;;5322520;28;20335;-70
2021/12/25 16:03:09;;;;;;;;;;;;;;;;;;5322466;28;19998;-70
2021/12/25 16:05:40;;;;;;;;;;;;;;;;;;5323009;28;20351;-70
2021/12/25 16:08:11;;;;;;;;;;;;;;;;;;5322864;28;19904;-69
2021/12/25 16:10:43;;;;;;;;;;;;;;;;;;5320226;27;19999;-70
2021/12/25 16:13:19;;;;;;;;;;;;;;;;;;5322702;27;19916;-70
2021/12/25 16:15:50;;;;;;;;;;;;;;;;;;5317720;28;20006;-71
2021/12/25 16:18:21;;;;;;;;;;;;;;;;;;5322535;28;20427;-69
2021/12/25 16:20:52;;;;;;;;;;;;;;;;;;5306127;28;19911;-69
2021/12/25 16:23:23;;;;;;;;;;;;;;;;;;5304475;28;19961;-70
2021/12/25 16:25:54;;;;;;;;;;;;;;;;;;5317731;28;19961;-70
2021/12/25 16:28:26;;;;;;;;;;;;;;;;;;5317700;28;19984;-70
2021/12/25 16:30:57;;;;;;;;;;;;;;;;;;5319881;28;20022;-69
2021/12/25 16:33:28;;;;;;;;;;;;;;;;;;5321483;28;19998;-71
2021/12/25 16:35:59;;;;;;;;;;;;;;;;;;5320017;28;19914;-69
2021/12/25 16:38:30;;;;;;;;;;;;;;;;;;5319318;28;20009;-70
2021/12/25 16:41:02;;;;;;;;;;;;;;;;;;5319514;28;19916;-70
2021/12/25 16:43:34;;;;;;;;;;;;;;;;;;5319634;28;20630;-70
2021/12/25 16:46:05;;;;;;;;;;;;;;;;;;5321027;28;19910;-70
2021/12/25 16:48:36;;;;;;;;;;;;;;;;;;5321945;28;20028;-68
2021/12/25 16:51:08;;;;;;;;;;;;;;;;;;5321873;28;19904;-70
2021/12/25 16:53:39;;;;;;;;;;;;;;;;;;5321663;28;19918;-70
2021/12/25 16:56:10;;;;;;;;;;;;;;;;;;5325118;28;19907;-69
2021/12/25 16:58:41;;;;;;;;;;;;;;;;;;5320770;28;19911;-70
2021/12/25 17:01:12;;;;;;;;;;;;;;;;;;5329187;28;20072;-68
2021/12/25 17:03:43;;;;;;;;;;;;;;;;;;5340945;28;19914;-68
2021/12/25 17:06:15;;;;;;;;;;;;;;;;;;5322957;28;19907;-68
2021/12/25 17:08:46;;;;;;;;;;;;;;;;;;5321578;28;19907;-69
2021/12/25 17:11:18;;;;;;;;;;;;;;;;;;5323151;28;19957;-68
2021/12/25 17:13:49;;;;;;;;;;;;;;;;;;5322025;28;19915;-68
2021/12/25 17:16:20;;;;;;;;;;;;;;;;;;5324114;28;19904;-68
2021/12/25 17:18:51;;;;;;;;;;;;;;;;;;5323365;28;19907;-68
2021/12/25 17:21:22;;;;;;;;;;;;;;;;;;5343848;28;19915;-68
2021/12/25 17:23:53;;;;;;;;;;;;;;;;;;5344522;28;19903;-68
2021/12/25 17:26:24;;;;;;;;;;;;;;;;;;5338766;28;19910;-68
2021/12/25 17:28:55;;;;;;;;;;;;;;;;;;5322333;28;20053;-69
2021/12/25 17:31:26;;;;;;;;;;;;;;;;;;5322742;28;19908;-68
2021/12/25 17:33:57;;;;;;;;;;;;;;;;;;5320645;28;19923;-69
2021/12/25 17:36:28;;;;;;;;;;;;;;;;;;5331694;27;20350;-69
2021/12/25 17:39:00;;;;;;;;;;;;;;;;;;5326909;27;19921;-67
2021/12/25 17:41:35;;;;;;;;;;;;;;;;;;5326727;27;19904;-67
2021/12/25 17:44:06;;;;;;;;;;;;;;;;;;5325637;28;19907;-67
2021/12/25 17:46:37;;;;;;;;;;;;;;;;;;5324715;28;19923;-70
2021/12/25 17:49:10;;;;;;;;;;;;;;;;;;5326414;28;19910;-67
2021/12/25 17:51:41;;;;;;;;;;;;;;;;;;5325836;28;20312;-68
2021/12/25 17:54:12;;;;;;;;;;;;;;;;;;5325523;28;19915;-69
2021/12/25 17:56:43;;;;;;;;;;;;;;;;;;5332257;27;19977;-69
2021/12/25 17:59:15;;;;;;;;;;;;;;;;;;5347597;27;19910;-68
2021/12/25 18:01:46;;;;;;;;;;;;;;;;;;5346468;27;19903;-69
2021/12/25 18:04:17;;;;;;;;;;;;;;;;;;5347758;27;19945;-69
2021/12/25 18:06:48;;;;;;;;;;;;;;;;;;5344778;27;19976;-68
2021/12/25 18:09:19;;;;;;;;;;;;;;;;;;5334635;27;20330;-68
2021/12/25 18:11:50;;;;;;;;;;;;;;;;;;5346508;27;19903;-68
2021/12/25 18:14:21;;;;;;;;;;;;;;;;;;5347124;27;19910;-68
2021/12/25 18:16:52;;;;;;;;;;;;;;;;;;5328278;27;20570;-68
2021/12/25 18:19:23;;;;;;;;;;;;;;;;;;5347025;27;19908;-68
2021/12/25 18:21:54;;;;;;;;;;;;;;;;;;5345388;27;19903;-69
2021/12/25 18:24:25;;;;;;;;;;;;;;;;;;5346968;27;20362;-67
2021/12/25 18:26:57;;;;;;;;;;;;;;;;;;5337005;27;20378;-67
2021/12/25 18:29:28;;;;;;;;;;;;;;;;;;5324877;28;19903;-67